Time;durP1;ratioP1;P1;durP2;ratioP2;P2;SDS_P1;SDS_P2;PMS_P1;PMS_P2;Temp;Humidity;BMP_temperature;BMP_pressure;BME280_temperature;BME280_humidity;BME280_pressure;Samples;Min_cycle;Max_cycle;Signal;HPM_P1;HPM_P2
2023/07/17 00:00:16;;;;;;;4.60;4.10;;;;;;;17.99;70.95;99850.04;218698;1258;140004;-67
2023/07/17 00:05:41;;;;;;;3.90;3.50;;;;;;;17.88;70.78;99845.62;217939;1260;139769;-67
2023/07/17 00:10:45;;;;;;;3.50;3.00;;;;;;;17.74;70.95;99844.47;219351;1258;140458;-68
2023/07/17 00:15:51;;;;;;;3.50;3.30;;;;;;;17.66;71.19;99846.84;218958;1254;140221;-68
2023/07/17 00:20:56;;;;;;;3.60;3.30;;;;;;;17.62;71.27;99844.52;218039;1254;139982;-69
2023/07/17 00:26:00;;;;;;;4.70;3.80;;;;;;;17.56;71.59;99841.42;219641;1254;139701;-68
2023/07/17 00:31:06;;;;;;;4.20;3.80;;;;;;;17.50;71.74;99840.80;220658;1254;140323;-67
2023/07/17 00:36:10;;;;;;;4.30;3.90;;;;;;;17.45;71.79;99846.10;220685;1254;139863;-68
2023/07/17 00:41:15;;;;;;;10.20;4.20;;;;;;;17.44;71.67;99845.10;220689;1254;139528;-68
2023/07/17 00:46:19;;;;;;;5.10;4.00;;;;;;;17.40;71.95;99840.05;220706;1254;140563;-69
2023/07/17 00:51:24;;;;;;;3.90;3.60;;;;;;;17.40;72.01;99832.79;219341;1254;140121;-68
2023/07/17 00:56:29;;;;;;;4.30;3.50;;;;;;;17.38;71.97;99828.16;218094;1254;139617;-67
2023/07/17 01:01:35;;;;;;;4.90;3.80;;;;;;;17.27;71.91;99823.02;219038;1254;141018;-68
2023/07/17 01:06:40;;;;;;;5.40;4.10;;;;;;;17.15;72.23;99818.17;218536;1254;140789;-68
2023/07/17 01:11:44;;;;;;;4.10;3.70;;;;;;;17.06;72.23;99818.81;219869;1254;139916;-67
2023/07/17 01:16:49;;;;;;;4.90;4.10;;;;;;;16.93;72.66;99821.86;218536;1257;139750;-68
2023/07/17 01:21:59;;;;;;;6.30;4.40;;;;;;;16.86;73.02;99822.85;219033;1255;139995;-68
2023/07/17 01:27:07;;;;;;;4.40;4.00;;;;;;;16.84;73.26;99832.77;218879;1256;139587;-69
2023/07/17 01:32:13;;;;;;;7.10;4.70;;;;;;;16.81;73.59;99827.11;218334;1259;142404;-68
2023/07/17 01:37:18;;;;;;;4.40;4.00;;;;;;;16.79;73.57;99826.00;218926;1257;141922;-68
2023/07/17 01:42:23;;;;;;;3.90;3.60;;;;;;;16.65;73.57;99827.89;219043;1256;139678;-68
2023/07/17 01:47:27;;;;;;;6.60;4.20;;;;;;;16.57;73.90;99833.10;218391;1259;140068;-68
2023/07/17 01:52:31;;;;;;;4.40;4.00;;;;;;;16.56;74.22;99840.38;218418;1257;140317;-67
2023/07/17 01:57:36;;;;;;;4.90;4.30;;;;;;;16.50;74.25;99843.68;218246;1256;139901;-66
2023/07/17 02:02:41;;;;;;;5.30;4.20;;;;;;;16.41;74.62;99848.32;218562;1257;141713;-65
2023/07/17 02:07:46;;;;;;;9.30;4.50;;;;;;;16.34;75.00;99858.38;218726;1255;140447;-67
2023/07/17 02:12:51;;;;;;;4.10;3.70;;;;;;;16.36;75.26;99852.30;219065;1254;139726;-66
2023/07/17 02:17:55;;;;;;;4.80;4.30;;;;;;;16.36;75.24;99846.54;219211;1254;140437;-67
2023/07/17 02:23:01;;;;;;;4.80;3.80;;;;;;;16.31;75.40;99849.55;218917;1254;139541;-67
2023/07/17 02:28:05;;;;;;;6.10;4.90;;;;;;;16.33;75.67;99860.52;218695;1254;139429;-65
2023/07/17 02:33:09;;;;;;;5.30;4.90;;;;;;;16.40;76.28;99864.24;220574;1254;140319;-66
2023/07/17 02:38:14;;;;;;;6.00;4.40;;;;;;;16.54;76.62;99863.84;220867;1254;140218;-68
2023/07/17 02:43:20;;;;;;;5.40;4.80;;;;;;;16.60;76.49;99877.67;220800;1254;140449;-68
2023/07/17 02:48:25;;;;;;;6.10;5.20;;;;;;;16.66;76.60;99886.21;220191;1254;139889;-66
2023/07/17 02:53:30;;;;;;;6.40;5.90;;;;;;;16.72;76.87;99883.79;219392;1254;139657;-67
2023/07/17 02:58:41;;;;;;;5.10;4.50;;;;;;;16.82;77.23;99866.20;220503;1254;139712;-67
2023/07/17 03:03:47;;;;;;;5.70;4.80;;;;;;;16.91;77.07;99871.41;219687;1254;139618;-66
2023/07/17 03:08:51;;;;;;;5.50;5.00;;;;;;;16.91;76.65;99870.92;219345;1254;141643;-68
2023/07/17 03:13:55;;;;;;;5.40;5.00;;;;;;;16.88;76.67;99875.72;218134;1255;141142;-67
2023/07/17 03:19:01;;;;;;;5.60;5.00;;;;;;;16.84;76.73;99881.17;218365;1256;139545;-67
2023/07/17 03:24:05;;;;;;;6.20;5.60;;;;;;;16.84;77.44;99879.82;218521;1256;140790;-67
2023/07/17 03:29:10;;;;;;;8.10;5.30;;;;;;;16.91;77.72;99888.91;218243;1259;140741;-67
2023/07/17 03:34:15;;;;;;;7.80;6.00;;;;;;;17.03;78.05;99898.64;218113;1257;139867;-66
2023/07/17 03:39:20;;;;;;;6.60;5.00;;;;;;;17.22;78.14;99905.64;218264;1257;139357;-66
2023/07/17 03:44:25;;;;;;;5.60;5.10;;;;;;;17.34;78.37;99916.92;218315;1255;140278;-65
2023/07/17 03:49:29;;;;;;;7.00;6.40;;;;;;;17.49;78.85;99912.77;218815;1256;139784;-68
2023/07/17 03:54:34;;;;;;;8.80;6.10;;;;;;;17.67;79.24;99911.20;218243;1257;140772;-67
2023/07/17 03:59:48;;;;;;;9.60;6.50;;;;;;;17.91;79.65;99927.80;218733;1256;139624;-69
2023/07/17 04:04:53;;;;;;;10.00;7.10;;;;;;;18.11;79.92;99953.58;218652;1255;139821;-69
2023/07/17 04:09:58;;;;;;;7.30;6.70;;;;;;;18.27;79.83;99956.08;218399;1256;140404;-69
2023/07/17 04:15:03;;;;;;;8.10;5.70;;;;;;;18.43;80.03;99943.60;219680;1254;141187;-67
2023/07/17 04:20:10;;;;;;;14.60;7.00;;;;;;;18.60;80.42;99944.36;218705;1254;140942;-67
2023/07/17 04:25:15;;;;;;;7.40;6.80;;;;;;;18.78;80.68;99951.34;220679;1254;140462;-68
2023/07/17 04:30:20;;;;;;;6.00;5.50;;;;;;;18.98;80.61;99945.27;220848;1255;140131;-68
2023/07/17 04:35:24;;;;;;;6.70;6.10;;;;;;;19.14;80.34;99936.90;219893;1254;139887;-67
2023/07/17 04:40:29;;;;;;;9.30;6.90;;;;;;;19.31;80.23;99925.10;220722;1254;139729;-69
2023/07/17 04:45:34;;;;;;;7.60;7.00;;;;;;;19.44;80.26;99938.57;218882;1254;139770;-69
2023/07/17 04:50:38;;;;;;;8.10;7.30;;;;;;;19.52;80.24;99943.21;219591;1254;140954;-67
2023/07/17 04:55:42;;;;;;;7.60;6.70;;;;;;;19.60;80.25;99951.11;218079;1258;139909;-65
2023/07/17 05:00:48;;;;;;;7.30;6.50;;;;;;;19.64;80.10;99930.29;218005;1257;140585;-66
2023/07/17 05:05:53;;;;;;;6.50;6.00;;;;;;;19.64;80.07;99926.39;219568;1254;140780;-68
2023/07/17 05:10:59;;;;;;;7.30;6.60;;;;;;;19.73;80.11;99939.60;217915;1254;140590;-66
2023/07/17 05:16:03;;;;;;;;;;;;;;;20.02;80.05;99944.29;219334;1254;140166;-65
2023/07/17 05:21:09;;;;;;;9.20;7.70;;;;;;;20.51;79.82;99937.89;218787;1257;127092;-67
2023/07/17 05:26:13;;;;;;;7.60;7.00;;;;;;;20.87;79.48;99939.64;218179;1257;140565;-66
2023/07/17 05:31:18;;;;;;;7.70;7.00;;;;;;;21.48;78.52;99932.73;218417;1256;585294;-66
2023/07/17 05:36:24;;;;;;;8.00;7.30;;;;;;;21.70;78.14;99926.19;218171;1254;140381;-68
2023/07/17 05:41:29;;;;;;;7.30;6.70;;;;;;;21.86;77.37;99923.50;218061;1257;139655;-67
2023/07/17 05:46:34;;;;;;;7.80;7.10;;;;;;;21.95;77.05;99933.47;218709;1254;139558;-66
2023/07/17 05:51:39;;;;;;;7.00;6.40;;;;;;;21.90;76.60;99931.30;219317;1254;139799;-66
2023/07/17 05:56:44;;;;;;;6.90;6.30;;;;;;;21.84;76.37;99932.42;219332;1254;140938;-66
2023/07/17 06:01:49;;;;;;;7.60;6.90;;;;;;;21.90;76.00;99937.34;218390;1258;140199;-68
2023/07/17 06:06:54;;;;;;;9.40;7.20;;;;;;;22.08;75.93;99929.22;218872;1254;140133;-69
2023/07/17 06:11:59;;;;;;;7.50;6.90;;;;;;;22.26;75.25;99926.71;220780;1254;139856;-67
2023/07/17 06:17:04;;;;;;;35.90;8.70;;;;;;;22.34;75.02;99923.84;218206;1255;140093;-67
2023/07/17 06:22:08;;;;;;;6.40;5.90;;;;;;;22.53;74.43;99918.34;220623;1256;140472;-67
2023/07/17 06:27:13;;;;;;;7.00;6.40;;;;;;;22.60;73.83;99921.16;220628;1255;141402;-68
2023/07/17 06:32:18;;;;;;;7.00;6.50;;;;;;;22.97;73.35;99921.04;220720;1256;139743;-68
2023/07/17 06:37:23;;;;;;;6.50;6.00;;;;;;;23.97;72.52;99921.02;219043;1255;140024;-67
2023/07/17 06:42:30;;;;;;;5.90;5.40;;;;;;;24.93;70.48;99922.91;219322;1257;140770;-65
2023/07/17 06:47:35;;;;;;;6.40;5.90;;;;;;;25.11;68.88;99926.05;218665;1257;140049;-66
2023/07/17 06:52:41;;;;;;;5.40;4.90;;;;;;;25.43;68.03;99925.70;218493;1256;139758;-69
2023/07/17 06:57:45;;;;;;;5.70;5.20;;;;;;;26.47;66.67;99931.77;218727;1257;139843;-70
2023/07/17 07:02:49;;;;;;;4.60;4.20;;;;;;;27.97;64.44;99930.79;218397;1256;140579;-71
2023/07/17 07:07:54;;;;;;;4.90;3.60;;;;;;;29.22;61.01;99928.54;217741;1257;140922;-68
2023/07/17 07:13:00;;;;;;;3.90;3.10;;;;;;;30.74;58.31;99934.84;218452;1254;140031;-70
2023/07/17 07:18:04;;;;;;;2.40;2.30;;;;;;;32.06;55.22;99932.20;219256;1256;139074;-68
2023/07/17 07:23:08;;;;;;;2.30;2.20;;;;;;;33.07;52.93;99919.70;217979;1257;139026;-67
2023/07/17 07:28:13;;;;;;;3.20;2.90;;;;;;;34.08;50.95;99906.83;218697;1255;140062;-66
2023/07/17 07:33:18;;;;;;;2.70;2.50;;;;;;;34.45;49.90;99909.98;218511;1256;139164;-66
2023/07/17 07:38:23;;;;;;;2.80;2.60;;;;;;;34.98;48.97;99904.39;218080;1258;151238;-68
2023/07/17 07:43:28;;;;;;;3.90;3.20;;;;;;;35.24;47.43;99913.17;217995;1256;139496;-67
2023/07/17 07:48:34;;;;;;;3.80;3.00;;;;;;;34.96;45.83;99907.08;218029;1257;138717;-67
2023/07/17 07:53:38;;;;;;;3.20;2.90;;;;;;;34.78;45.43;99904.92;219455;1256;139480;-67
2023/07/17 07:58:46;;;;;;;2.70;2.50;;;;;;;34.50;44.32;99910.77;219372;1256;140652;-68
2023/07/17 08:03:51;;;;;;;3.50;3.10;;;;;;;33.94;43.59;99910.80;219016;1259;139629;-65
2023/07/17 08:08:56;;;;;;;2.10;2.00;;;;;;;33.79;43.38;99905.25;219981;1256;139502;-66
2023/07/17 08:14:00;;;;;;;3.10;2.70;;;;;;;33.67;43.38;99913.55;220660;1255;139780;-66
2023/07/17 08:19:05;;;;;;;2.20;2.10;;;;;;;33.46;43.14;99908.20;220702;1255;140412;-68
2023/07/17 08:24:10;;;;;;;3.60;3.30;;;;;;;33.27;43.39;99901.98;220736;1256;139709;-68
2023/07/17 08:29:15;;;;;;;4.20;2.70;;;;;;;33.63;43.79;99897.01;220649;1256;225454;-68
2023/07/17 08:34:20;;;;;;;3.40;3.10;;;;;;;33.73;43.00;99898.82;219234;1256;139712;-68
2023/07/17 08:39:26;;;;;;;2.80;2.60;;;;;;;33.46;42.27;99901.72;219536;1257;139284;-68
2023/07/17 08:44:33;;;;;;;2.90;2.70;;;;;;;33.52;42.76;99895.05;219136;1257;140220;-68
2023/07/17 08:49:39;;;;;;;5.90;3.20;;;;;;;33.58;42.29;99890.84;218083;1257;140144;-67
2023/07/17 08:54:44;;;;;;;3.50;2.80;;;;;;;33.71;41.56;99877.94;218568;1256;139508;-68
2023/07/17 08:59:50;;;;;;;3.20;2.60;;;;;;;33.65;41.19;99864.39;218083;1257;138847;-67
2023/07/17 09:04:55;;;;;;;3.60;3.10;;;;;;;33.55;41.29;99853.15;218669;1256;139403;-67
2023/07/17 09:10:23;;;;;;;3.00;2.60;;;;;;;33.49;40.94;99862.66;218374;1254;138780;-67
2023/07/17 09:15:29;;;;;;;2.60;2.40;;;;;;;33.30;41.00;99866.48;218501;1254;139592;-68
2023/07/17 09:20:35;;;;;;;2.40;2.20;;;;;;;33.26;41.01;99865.42;218830;1254;139840;-67
2023/07/17 09:25:48;;;;;;;3.30;2.90;;;;;;;33.48;40.82;99871.96;218130;1254;138791;-67
2023/07/17 09:31:03;;;;;;;2.80;2.60;;;;;;;33.50;39.95;99874.91;218935;1258;139013;-67
2023/07/17 09:36:11;;;;;;;4.10;3.10;;;;;;;33.32;39.82;99866.25;217754;1257;139688;-70
2023/07/17 09:41:23;;;;;;;3.70;2.80;;;;;;;32.96;39.47;99860.91;218633;1256;140769;-69
2023/07/17 09:46:37;;;;;;;3.40;2.50;;;;;;;33.03;39.19;99853.33;218083;1258;138847;-69
2023/07/17 09:51:44;;;;;;;3.00;2.80;;;;;;;33.46;39.46;99843.07;219019;1254;140347;-69
2023/07/17 09:56:50;;;;;;;4.50;2.90;;;;;;;33.82;38.83;99842.79;218700;1258;140068;-69
2023/07/17 10:01:57;;;;;;;2.30;2.10;;;;;;;34.04;38.07;99837.98;219413;1258;139618;-70
2023/07/17 10:07:04;;;;;;;2.90;2.60;;;;;;;33.85;37.39;99828.26;217951;1254;139750;-70
2023/07/17 10:12:10;;;;;;;3.90;2.90;;;;;;;33.84;37.12;99820.36;218153;1258;139001;-69
2023/07/17 10:17:27;;;;;;;5.30;3.30;;;;;;;33.43;36.85;99809.64;219242;1255;139681;-70
2023/07/17 10:22:44;;;;;;;2.60;2.40;;;;;;;32.99;36.67;99816.60;217900;1254;138731;-70
2023/07/17 10:27:52;;;;;;;2.80;2.60;;;;;;;32.95;37.51;99819.81;217749;1259;139038;-70
2023/07/17 10:33:09;;;;;;;3.50;2.70;;;;;;;33.09;37.73;99821.24;217980;1257;139905;-70
2023/07/17 10:38:30;;;;;;;5.20;3.20;;;;;;;33.33;37.43;99816.52;218554;1256;139736;-70
2023/07/17 10:43:37;;;;;;;5.30;2.10;;;;;;;33.19;37.12;99815.16;218007;1256;139367;-70
2023/07/17 10:48:42;;;;;;;2.40;2.20;;;;;;;33.37;37.31;99817.02;218624;1257;138767;-70
2023/07/17 10:53:56;;;;;;;2.10;2.00;;;;;;;33.33;36.93;99815.50;218452;1258;139234;-68
2023/07/17 10:59:01;;;;;;;2.30;2.10;;;;;;;33.75;36.71;99816.98;217733;1257;139401;-70
2023/07/17 11:04:10;;;;;;;3.30;2.90;;;;;;;33.82;35.49;99822.48;218821;1256;139669;-70
2023/07/17 11:09:19;;;;;;;2.50;1.80;;;;;;;33.68;35.25;99811.98;218117;1259;139814;-68
2023/07/17 11:14:23;;;;;;;4.20;2.40;;;;;;;33.56;35.44;99794.33;218247;1255;139179;-68
2023/07/17 11:19:28;;;;;;;2.50;1.70;;;;;;;33.42;35.84;99784.28;217771;1259;138545;-69
2023/07/17 11:24:35;;;;;;;5.90;3.20;;;;;;;33.49;35.51;99784.48;218477;1256;139318;-70
2023/07/17 11:29:44;;;;;;;3.10;2.70;;;;;;;33.05;35.77;99781.13;217986;1257;140896;-70
2023/07/17 11:34:57;;;;;;;3.10;2.80;;;;;;;32.61;35.73;99790.02;218475;1257;139682;-70
2023/07/17 11:40:08;;;;;;;2.60;2.40;;;;;;;32.15;35.94;99795.70;218378;1259;139253;-69
2023/07/17 11:45:14;;;;;;;3.30;2.90;;;;;;;31.89;36.50;99798.55;218542;1255;139579;-70
2023/07/17 11:50:25;;;;;;;2.80;2.60;;;;;;;31.64;36.73;99816.41;219282;1259;140651;-70
2023/07/17 11:55:38;;;;;;;4.10;2.80;;;;;;;31.41;36.95;99814.84;217913;1257;138955;-70
2023/07/17 12:00:45;;;;;;;4.30;3.20;;;;;;;31.26;37.06;99809.75;220569;1256;139700;-70
2023/07/17 12:11:26;;;;;;;4.90;3.60;;;;;;;31.44;37.77;99795.77;215870;1297;637204;-69
2023/07/17 12:16:31;;;;;;;3.50;3.10;;;;;;;31.71;38.00;99784.02;219002;1268;138529;-71
2023/07/17 12:21:34;;;;;;;3.30;3.10;;;;;;;31.74;38.12;99782.24;216462;1269;736632;-68
2023/07/17 12:26:45;;;;;;;4.10;3.50;;;;;;;31.56;37.91;99791.44;219097;1266;139778;-70
2023/07/17 12:31:49;;;;;;;5.50;3.40;;;;;;;31.12;38.38;99797.33;218418;1265;139451;-70
2023/07/17 12:36:54;;;;;;;3.40;2.90;;;;;;;30.86;38.91;99794.66;216463;1266;138821;-70
2023/07/17 12:41:59;;;;;;;3.70;3.40;;;;;;;30.82;39.49;99786.66;218286;1260;138809;-68
2023/07/17 12:47:04;;;;;;;6.00;3.60;;;;;;;30.73;39.78;99783.67;217863;1263;137979;-71
2023/07/17 12:52:09;;;;;;;6.30;3.10;;;;;;;30.67;39.88;99784.89;217235;1260;138199;-68
2023/07/17 12:57:13;;;;;;;3.50;3.20;;;;;;;30.51;40.16;99785.73;217941;1259;138480;-67
2023/07/17 13:02:21;;;;;;;9.90;3.50;;;;;;;30.38;40.32;99775.50;217781;1259;138738;-68
2023/07/17 13:07:26;;;;;;;3.90;3.40;;;;;;;30.55;40.56;99768.19;217512;1260;138956;-69
2023/07/17 13:12:32;;;;;;;4.20;3.20;;;;;;;31.03;40.26;99752.14;218134;1260;139049;-66
2023/07/17 13:17:53;;;;;;;4.30;3.60;;;;;;;31.05;39.65;99743.18;217157;1263;138468;-67
2023/07/17 13:22:57;;;;;;;3.10;2.90;;;;;;;31.28;39.65;99751.54;218152;1260;139051;-67
2023/07/17 13:28:01;;;;;;;3.90;3.10;;;;;;;31.35;39.47;99753.94;217038;1260;138548;-70
2023/07/17 13:33:05;;;;;;;;;;;;;;;31.35;39.36;99745.59;217677;1259;140553;-71
2023/07/17 13:38:10;;;;;;;3.20;3.00;;;;;;;31.34;39.27;99736.61;217571;1259;125813;-72
2023/07/17 13:43:15;;;;;;;5.50;3.40;;;;;;;31.18;39.29;99745.13;217651;1260;139765;-71
2023/07/17 13:48:20;;;;;;;4.60;4.20;;;;;;;31.10;39.35;99746.10;218085;1259;140439;-72
2023/07/17 13:53:25;;;;;;;3.60;3.30;;;;;;;31.13;39.20;99727.90;217561;1259;161282;-70
2023/07/17 13:58:29;;;;;;;6.20;4.60;;;;;;;30.87;39.33;99723.97;219906;1259;138704;-70
2023/07/17 14:03:33;;;;;;;3.80;3.40;;;;;;;31.02;39.65;99706.95;220022;1259;138753;-70
2023/07/17 14:08:38;;;;;;;7.20;3.70;;;;;;;31.27;39.54;99696.06;220068;1259;139601;-68
2023/07/17 14:13:43;;;;;;;5.80;3.50;;;;;;;31.13;39.39;99693.98;219934;1260;139235;-68
2023/07/17 14:18:47;;;;;;;7.90;3.60;;;;;;;30.80;39.44;99681.10;219097;1259;139953;-69
2023/07/17 14:23:54;;;;;;;7.80;4.00;;;;;;;30.83;39.98;99666.66;218463;1259;139000;-70
2023/07/17 14:28:59;;;;;;;4.50;3.70;;;;;;;31.10;40.05;99670.74;218659;1259;139107;-70
2023/07/17 14:34:04;;;;;;;3.30;3.10;;;;;;;31.23;39.68;99673.04;218980;1259;138618;-69
2023/07/17 14:39:09;;;;;;;3.20;3.00;;;;;;;30.97;39.27;99680.47;217090;1260;138401;-68
2023/07/17 14:44:14;;;;;;;4.00;3.60;;;;;;;30.76;39.42;99688.12;217359;1260;138312;-70
2023/07/17 14:49:18;;;;;;;;;;;;;;;30.66;39.61;99689.54;217743;1260;138592;-66
2023/07/17 14:54:23;;;;;;;5.70;4.00;;;;;;;30.81;39.40;99684.26;218539;1259;125309;-69
2023/07/17 14:59:27;;;;;;;;;;;;;;;30.96;38.89;99679.73;217499;1260;139057;-68
2023/07/17 15:04:33;;;;;;;5.10;4.20;;;;;;;30.76;38.64;99676.95;217694;1263;125488;-68
2023/07/17 15:09:39;;;;;;;8.00;3.50;;;;;;;30.50;38.59;99687.16;218120;1260;139817;-70
2023/07/17 15:14:44;;;;;;;4.80;3.70;;;;;;;30.26;38.29;99681.10;217628;1260;139949;-70
2023/07/17 15:19:50;;;;;;;4.60;3.90;;;;;;;30.13;38.62;99665.48;217339;1260;139157;-72
2023/07/17 15:24:55;;;;;;;11.60;4.60;;;;;;;29.92;38.68;99660.55;217327;1260;139472;-70
2023/07/17 15:30:00;;;;;;;8.30;4.20;;;;;;;29.77;38.75;99654.62;217067;1263;138952;-70
2023/07/17 15:35:05;;;;;;;4.10;3.50;;;;;;;29.53;39.71;99666.02;218296;1260;140149;-71
2023/07/17 15:40:10;;;;;;;4.60;3.80;;;;;;;29.26;41.38;99672.98;217436;1260;138649;-71
2023/07/17 15:45:21;;;;;;;3.50;3.30;;;;;;;28.90;43.10;99684.29;217161;1260;138420;-70
2023/07/17 15:50:27;;;;;;;5.10;3.60;;;;;;;28.37;44.40;99721.17;217987;1260;139076;-69
2023/07/17 15:55:33;;;;;;;4.30;3.80;;;;;;;27.55;46.40;99736.73;219536;1259;139251;-72
2023/07/17 16:00:39;;;;;;;4.30;3.80;;;;;;;26.95;47.85;99758.11;220131;1259;139715;-70
2023/07/17 16:05:44;;;;;;;4.60;3.80;;;;;;;26.37;49.16;99762.95;220059;1259;140062;-74
2023/07/17 16:10:50;;;;;;;5.10;3.00;;;;;;;26.14;50.24;99753.55;219659;1260;139404;-72
2023/07/17 16:15:54;;;;;;;;;;;;;;;25.92;50.86;99738.17;219901;1259;139831;-74
2023/07/17 16:21:00;;;;;;;4.40;3.10;;;;;;;25.63;51.67;99725.50;219498;1257;126987;-73
2023/07/17 16:26:07;;;;;;;4.10;2.90;;;;;;;25.39;52.40;99719.08;220445;1254;139250;-72
2023/07/17 16:31:12;;;;;;;5.30;3.10;;;;;;;25.21;53.47;99731.74;217956;1255;138763;-72
2023/07/17 16:36:17;;;;;;;4.70;3.70;;;;;;;25.24;54.28;99733.26;218637;1254;138733;-73
2023/07/17 16:41:24;;;;;;;4.20;3.70;;;;;;;25.29;54.95;99726.88;218374;1255;139022;-72
2023/07/17 16:46:29;;;;;;;3.80;3.50;;;;;;;25.32;55.38;99727.02;219332;1257;138845;-69
2023/07/17 16:51:34;;;;;;;5.30;4.30;;;;;;;25.31;55.87;99724.88;218380;1258;139604;-70
2023/07/17 16:56:47;;;;;;;7.20;4.60;;;;;;;25.28;56.49;99721.27;218390;1254;138779;-67
2023/07/17 17:01:53;;;;;;;13.40;4.40;;;;;;;25.25;56.94;99723.24;218162;1257;139889;-66
2023/07/17 17:06:58;;;;;;;5.10;4.50;;;;;;;25.27;57.20;99720.66;218717;1258;139575;-68
2023/07/17 17:12:05;;;;;;;7.70;4.20;;;;;;;25.14;57.68;99718.63;217920;1258;139296;-67
2023/07/17 17:17:12;;;;;;;6.40;4.70;;;;;;;25.11;58.12;99713.89;218642;1257;139668;-67
2023/07/17 17:22:17;;;;;;;6.30;3.60;;;;;;;25.10;58.43;99710.69;218219;1257;139984;-69
2023/07/17 17:27:22;;;;;;;7.40;4.50;;;;;;;25.08;58.76;99710.58;219332;1255;140421;-70
2023/07/17 17:32:27;;;;;;;5.50;3.90;;;;;;;25.04;59.32;99707.33;219450;1254;140866;-67
2023/07/17 17:37:35;;;;;;;8.30;4.80;;;;;;;24.96;59.33;99711.30;219535;1257;139133;-67
2023/07/17 17:42:39;;;;;;;6.70;4.60;;;;;;;24.81;59.96;99718.63;220224;1257;140139;-64
2023/07/17 17:47:43;;;;;;;7.80;5.10;;;;;;;24.67;60.49;99721.82;219350;1255;139790;-65
2023/07/17 17:52:50;;;;;;;7.70;4.70;;;;;;;24.58;60.83;99718.86;219338;1256;139962;-67
2023/07/17 17:57:55;;;;;;;11.10;5.30;;;;;;;24.53;61.23;99722.64;220844;1254;139927;-68
2023/07/17 18:03:02;;;;;;;5.90;5.00;;;;;;;24.45;61.72;99729.89;220720;1254;140013;-67
2023/07/17 18:08:08;;;;;;;6.20;5.00;;;;;;;24.36;61.88;99731.09;219803;1254;140471;-68
2023/07/17 18:13:12;;;;;;;5.80;4.10;;;;;;;24.29;62.35;99729.77;219962;1254;140623;-66
2023/07/17 18:18:17;;;;;;;7.00;5.50;;;;;;;24.17;62.69;99733.14;220534;1255;139698;-67
2023/07/17 18:23:22;;;;;;;8.30;5.30;;;;;;;24.09;63.22;99732.88;218630;1254;141418;-64
2023/07/17 18:28:27;;;;;;;6.10;5.50;;;;;;;23.99;63.68;99743.52;219066;1256;139753;-65
2023/07/17 18:33:31;;;;;;;5.10;4.60;;;;;;;23.83;64.09;99743.65;219200;1256;139443;-64
2023/07/17 18:38:36;;;;;;;6.90;5.70;;;;;;;23.69;64.46;99745.11;218628;1258;139832;-66
2023/07/17 18:43:42;;;;;;;7.00;6.40;;;;;;;23.48;64.80;99742.76;218621;1258;140742;-68
2023/07/17 18:48:46;;;;;;;;;;;;;;;23.25;65.24;99737.35;218071;1258;139631;-68
2023/07/17 18:53:52;;;;;;;7.00;5.60;;;;;;;23.08;65.88;99736.44;218409;1254;125628;-67
2023/07/17 18:58:56;;;;;;;6.40;5.90;;;;;;;22.95;66.32;99729.38;218223;1257;141356;-68
2023/07/17 19:04:01;;;;;;;5.90;5.30;;;;;;;22.86;66.35;99728.46;218435;1254;139446;-71
2023/07/17 19:09:06;;;;;;;9.60;6.30;;;;;;;22.73;66.34;99727.83;218817;1254;140623;-69
2023/07/17 19:14:11;;;;;;;8.50;6.80;;;;;;;22.57;66.43;99733.88;217874;1254;139445;-66
2023/07/17 19:19:16;;;;;;;6.20;5.70;;;;;;;22.39;66.40;99732.52;217822;1256;139861;-65
2023/07/17 19:24:22;;;;;;;6.70;6.10;;;;;;;22.15;66.58;99736.42;217961;1257;139712;-67
2023/07/17 19:29:29;;;;;;;7.90;6.00;;;;;;;21.93;66.84;99734.84;218040;1259;139474;-67
2023/07/17 19:34:34;;;;;;;6.60;5.60;;;;;;;21.74;67.01;99735.29;219266;1254;140581;-70
2023/07/17 19:39:39;;;;;;;7.60;5.40;;;;;;;21.47;67.04;99736.70;218440;1259;140052;-74
2023/07/17 19:44:45;;;;;;;10.50;7.00;;;;;;;21.20;67.44;99730.80;218060;1254;140010;-73
2023/07/17 19:49:49;;;;;;;10.30;7.00;;;;;;;20.95;67.85;99732.46;218593;1258;140899;-68
2023/07/17 19:54:55;;;;;;;7.50;6.70;;;;;;;20.76;68.15;99735.34;217956;1256;139282;-73
2023/07/17 20:00:00;;;;;;;9.90;7.40;;;;;;;20.61;68.41;99735.48;219198;1257;140576;-72
2023/07/17 20:05:07;;;;;;;8.80;7.50;;;;;;;20.48;68.26;99731.20;220622;1255;141686;-70
2023/07/17 20:10:12;;;;;;;7.40;6.70;;;;;;;20.31;68.37;99732.23;220595;1256;140661;-69
2023/07/17 20:15:19;;;;;;;11.10;7.20;;;;;;;20.16;68.36;99733.69;219739;1257;139558;-67
2023/07/17 20:20:24;;;;;;;11.60;7.00;;;;;;;20.02;68.42;99738.38;219750;1255;138996;-68
2023/07/17 20:25:29;;;;;;;9.50;7.70;;;;;;;19.85;68.62;99737.86;218880;1257;140441;-68
2023/07/17 20:30:36;;;;;;;8.90;8.00;;;;;;;19.72;68.99;99740.66;219545;1254;140646;-69
2023/07/17 20:35:42;;;;;;;13.20;7.20;;;;;;;19.60;69.18;99740.90;219032;1257;139216;-66
2023/07/17 20:40:47;;;;;;;8.20;7.40;;;;;;;19.44;69.46;99742.73;217956;1256;139567;-70
2023/07/17 20:45:54;;;;;;;11.20;8.20;;;;;;;19.35;69.85;99745.52;217798;1254;144633;-69
2023/07/17 20:51:07;;;;;;;10.80;8.40;;;;;;;19.25;70.14;99741.23;218247;1254;139829;-70
2023/07/17 20:56:12;;;;;;;12.60;8.70;;;;;;;19.16;70.32;99735.19;218292;1258;139689;-71
2023/07/17 21:01:24;;;;;;;9.80;7.60;;;;;;;19.05;70.52;99740.30;217858;1257;139484;-67
2023/07/17 21:06:30;;;;;;;9.50;8.20;;;;;;;18.94;70.76;99745.42;218139;1259;139372;-68
2023/07/17 21:11:35;;;;;;;11.40;8.20;;;;;;;18.82;71.19;99747.14;219288;1255;139288;-68
2023/07/17 21:16:40;;;;;;;10.10;9.10;;;;;;;18.75;71.93;99751.54;218511;1254;139517;-69
2023/07/17 21:21:49;;;;;;;8.50;7.70;;;;;;;18.70;72.60;99751.64;219092;1257;140277;-69
2023/07/17 21:26:58;;;;;;;10.80;9.70;;;;;;;18.65;72.55;99749.91;218349;1259;139988;-67
2023/07/17 21:32:04;;;;;;;9.00;8.20;;;;;;;18.58;72.71;99752.42;218219;1257;140679;-70
2023/07/17 21:37:09;;;;;;;9.10;8.40;;;;;;;18.56;72.76;99753.40;218987;1256;222960;-71
2023/07/17 21:42:17;;;;;;;8.20;7.50;;;;;;;18.56;72.96;99748.92;218849;1258;140337;-69
2023/07/17 21:47:24;;;;;;;8.40;7.70;;;;;;;18.58;73.29;99749.88;219488;1258;140166;-70
2023/07/17 21:52:30;;;;;;;9.40;7.50;;;;;;;18.61;73.61;99742.37;217983;1254;139818;-69
2023/07/17 21:57:35;;;;;;;;;;;;;;;18.62;73.80;99742.19;218745;1256;140618;-68
2023/07/17 22:02:40;;;;;;;7.20;6.30;;;;;;;18.57;73.97;99746.59;221217;1258;126127;-66
2023/07/17 22:07:49;;;;;;;8.70;7.90;;;;;;;18.56;74.50;99745.91;220585;1259;139829;-66
2023/07/17 22:12:55;;;;;;;9.30;8.40;;;;;;;18.57;75.02;99752.42;218719;1257;139563;-68
2023/07/17 22:18:01;;;;;;;10.60;7.70;;;;;;;18.59;75.35;99757.60;220169;1254;141254;-66
2023/07/17 22:23:22;;;;;;;7.30;6.50;;;;;;;18.69;75.85;99760.29;220686;1254;141205;-66
2023/07/17 22:28:27;;;;;;;8.60;7.60;;;;;;;18.80;76.11;99766.88;220380;1254;139644;-65
2023/07/17 22:33:32;;;;;;;7.70;7.10;;;;;;;18.90;76.33;99768.06;219235;1259;142554;-66
2023/07/17 22:38:37;;;;;;;8.40;7.70;;;;;;;18.95;76.43;99767.19;218555;1259;139940;-69
2023/07/17 22:43:42;;;;;;;7.90;7.20;;;;;;;18.93;76.43;99757.17;217859;1254;139514;-68
2023/07/17 22:48:48;;;;;;;8.10;7.10;;;;;;;18.86;76.29;99753.67;218960;1260;139829;-69
2023/07/17 22:53:53;;;;;;;10.50;7.90;;;;;;;18.77;76.50;99749.23;218476;1260;139989;-69
2023/07/17 22:58:59;;;;;;;;;;;;;;;18.75;76.95;99752.06;218826;1259;140324;-67
2023/07/17 23:04:05;;;;;;;8.40;7.60;;;;;;;18.76;77.17;99759.23;219705;1259;209008;-68
2023/07/17 23:09:10;;;;;;;8.70;7.90;;;;;;;18.79;77.32;99763.37;217929;1259;139334;-67
2023/07/17 23:14:16;;;;;;;7.80;7.00;;;;;;;18.79;77.33;99767.26;219161;1254;151457;-67
2023/07/17 23:19:20;;;;;;;9.60;8.40;;;;;;;18.76;77.17;99765.88;217746;1254;140469;-67
2023/07/17 23:24:25;;;;;;;10.60;7.40;;;;;;;18.72;77.19;99765.71;217936;1254;139474;-67
2023/07/17 23:29:29;;;;;;;7.80;7.10;;;;;;;18.67;77.15;99762.05;219347;1255;139524;-67
2023/07/17 23:34:34;;;;;;;8.30;7.00;;;;;;;18.60;77.02;99761.76;218161;1254;139606;-66